createdAt,value
2019-01-23T00:00:44.890Z,45.33
2019-01-23T00:03:13.881Z,44.57
2019-01-23T00:05:42.942Z,41.60
2019-01-23T00:08:12.473Z,42.20
2019-01-23T00:10:43.617Z,40.27
2019-01-23T00:13:12.645Z,38.77
2019-01-23T00:15:41.701Z,41.50
2019-01-23T00:18:10.809Z,40.30
2019-01-23T00:20:39.999Z,38.53
2019-01-23T00:23:09.008Z,39.60
2019-01-23T00:25:37.904Z,39.17
2019-01-23T00:28:07.003Z,39.40
2019-01-23T00:30:36.250Z,38.10
2019-01-23T00:33:05.485Z,40.03
2019-01-23T00:35:34.573Z,44.20
2019-01-23T00:38:03.631Z,37.07
2019-01-23T00:40:34.103Z,39.67
2019-01-23T00:43:03.008Z,39.33
2019-01-23T00:45:32.112Z,37.90
2019-01-23T00:48:01.003Z,38.33
2019-01-23T00:50:30.163Z,41.93
2019-01-23T00:52:59.103Z,38.27
2019-01-23T00:55:28.138Z,40.57
2019-01-23T00:57:57.225Z,38.77
2019-01-23T01:00:26.859Z,43.20
2019-01-23T01:02:56.236Z,40.77
2019-01-23T01:05:25.406Z,38.63
2019-01-23T01:07:54.472Z,40.50
2019-01-23T01:10:23.841Z,48.17
2019-01-23T01:12:52.908Z,41.10
2019-01-23T01:15:22.039Z,41.20
2019-01-23T01:17:51.162Z,44.30
2019-01-23T01:20:20.374Z,42.47
2019-01-23T01:22:49.434Z,43.83
2019-01-23T01:25:18.966Z,41.77
2019-01-23T01:27:48.156Z,40.53
2019-01-23T01:30:19.499Z,37.57
2019-01-23T01:32:48.400Z,35.17
2019-01-23T01:35:17.600Z,35.57
2019-01-23T01:40:21.554Z,40.57
2019-01-23T01:42:50.572Z,33.17
2019-01-23T01:45:19.599Z,37.77
2019-01-23T01:47:48.614Z,33.00
2019-01-23T01:50:21.588Z,33.03
2019-01-23T01:52:50.681Z,33.07
2019-01-23T01:55:19.860Z,33.20
2019-01-23T01:57:50.469Z,35.87
2019-01-23T02:00:21.522Z,37.40
2019-01-23T02:02:50.631Z,36.70
2019-01-23T02:05:20.020Z,38.00
2019-01-23T02:07:49.195Z,31.57
2019-01-23T02:10:20.128Z,35.13
2019-01-23T02:12:49.791Z,41.87
2019-01-23T02:15:19.603Z,39.30
2019-01-23T02:17:49.094Z,37.13
2019-01-23T02:20:25.976Z,35.28
2019-01-23T02:22:55.326Z,35.83
2019-01-23T02:25:24.527Z,37.17
2019-01-23T02:27:53.749Z,33.50
2019-01-23T02:30:24.822Z,38.13
2019-01-23T02:32:53.839Z,38.40
2019-01-23T02:35:23.036Z,39.60
2019-01-23T02:37:52.316Z,36.93
2019-01-23T02:40:24.397Z,40.57
2019-01-23T02:42:53.764Z,34.93
2019-01-23T02:45:23.519Z,34.40
2019-01-23T02:47:52.732Z,38.53
2019-01-23T02:50:21.874Z,39.90
2019-01-23T02:52:50.925Z,39.00
2019-01-23T02:55:20.036Z,35.73
2019-01-23T02:57:49.176Z,34.93
2019-01-23T03:00:19.362Z,37.70
2019-01-23T03:02:49.183Z,34.27
2019-01-23T03:05:19.534Z,37.33
2019-01-23T03:07:48.700Z,35.03
2019-01-23T03:10:19.954Z,37.23
2019-01-23T03:12:49.046Z,37.07
2019-01-23T03:15:18.483Z,35.80
2019-01-23T03:17:47.630Z,38.23
2019-01-23T03:20:18.488Z,35.50
2019-01-23T03:22:47.675Z,36.07
2019-01-23T03:25:17.272Z,37.17
2019-01-23T03:27:46.341Z,33.00
2019-01-23T03:30:20.844Z,37.47
2019-01-23T03:32:50.086Z,29.73
2019-01-23T03:35:19.738Z,31.37
2019-01-23T03:37:48.885Z,27.77
2019-01-23T03:40:19.756Z,26.70
2019-01-23T03:42:49.014Z,26.93
2019-01-23T03:45:18.237Z,27.53
2019-01-23T03:47:47.452Z,30.70
2019-01-23T03:50:17.761Z,26.10
2019-01-23T03:52:46.894Z,26.43
2019-01-23T03:55:16.326Z,30.77
2019-01-23T03:57:45.513Z,26.17
2019-01-23T04:00:18.497Z,26.63
2019-01-23T04:02:48.336Z,26.90
2019-01-23T04:05:17.680Z,29.27
2019-01-23T04:07:46.901Z,27.77
2019-01-23T04:10:17.934Z,29.50
2019-01-23T04:12:46.869Z,24.07
2019-01-23T04:15:16.434Z,25.07
2019-01-23T04:17:45.579Z,26.80
2019-01-23T04:20:16.647Z,26.07
2019-01-23T04:22:45.960Z,25.73
2019-01-23T04:25:15.481Z,24.80
2019-01-23T04:27:44.531Z,26.77
2019-01-23T04:30:24.230Z,27.87
2019-01-23T04:32:53.245Z,26.60
2019-01-23T04:35:22.284Z,25.47
2019-01-23T04:37:51.314Z,26.47
2019-01-23T04:40:20.293Z,30.87
2019-01-23T04:42:49.410Z,32.53
2019-01-23T04:45:18.331Z,30.23
2019-01-23T04:47:47.279Z,32.17
2019-01-23T04:50:17.128Z,33.43
2019-01-23T04:53:05.253Z,32.37
2019-01-23T04:55:35.452Z,29.07
2019-01-23T04:58:04.772Z,29.37
2019-01-23T05:00:33.824Z,34.43
2019-01-23T05:03:02.779Z,32.20
2019-01-23T05:05:31.712Z,30.17
2019-01-23T05:08:00.734Z,32.00
2019-01-23T05:10:29.636Z,30.20
2019-01-23T05:12:58.608Z,32.03
2019-01-23T05:15:27.451Z,33.63
2019-01-23T05:17:56.384Z,34.47
2019-01-23T05:20:25.478Z,34.10
2019-01-23T05:22:54.356Z,36.70
2019-01-23T05:25:23.226Z,33.30
2019-01-23T05:27:52.184Z,37.70
2019-01-23T05:30:23.434Z,35.83
2019-01-23T05:32:52.424Z,37.30
2019-01-23T05:35:21.494Z,35.03
2019-01-23T05:37:50.397Z,34.57
2019-01-23T05:40:19.590Z,40.43
2019-01-23T05:42:48.567Z,35.20
2019-01-23T05:45:17.807Z,34.33
2019-01-23T05:47:46.690Z,33.07
2019-01-23T05:50:16.524Z,36.60
2019-01-23T05:52:47.220Z,35.90
2019-01-23T05:55:16.398Z,35.27
2019-01-23T05:57:45.289Z,39.13
2019-01-23T06:00:17.760Z,35.07
2019-01-23T06:02:49.471Z,36.63
2019-01-23T06:05:19.006Z,37.45
2019-01-23T06:07:48.000Z,36.93
2019-01-23T06:10:17.092Z,34.13
2019-01-23T06:12:46.066Z,32.73
2019-01-23T06:15:15.304Z,31.87
2019-01-23T06:17:44.347Z,35.90
2019-01-23T06:20:15.935Z,41.13
2019-01-23T06:22:44.820Z,35.87
2019-01-23T06:25:13.925Z,36.40
2019-01-23T06:27:42.958Z,37.00
2019-01-23T06:30:14.509Z,37.83
2019-01-23T06:32:43.456Z,38.00
2019-01-23T06:35:12.660Z,36.77
2019-01-23T06:37:41.532Z,35.40
2019-01-23T06:40:11.538Z,40.33
2019-01-23T06:42:40.384Z,36.57
2019-01-23T06:45:11.121Z,35.77
2019-01-23T06:47:40.035Z,40.33
2019-01-23T06:50:14.395Z,38.27
2019-01-23T06:52:43.181Z,39.87
2019-01-23T06:55:12.364Z,43.87
2019-01-23T06:57:41.167Z,41.33
2019-01-23T07:00:17.219Z,38.03
2019-01-23T07:02:44.255Z,40.63
2019-01-23T07:05:13.575Z,39.43
2019-01-23T07:07:42.357Z,37.57
2019-01-23T07:10:14.821Z,35.87
2019-01-23T07:12:43.645Z,40.33
2019-01-23T07:15:12.710Z,37.70
2019-01-23T07:17:41.660Z,43.93
2019-01-23T07:20:13.868Z,39.00
2019-01-23T07:22:42.839Z,40.97
2019-01-23T07:25:12.134Z,37.00
2019-01-23T07:27:41.151Z,36.70
2019-01-23T07:30:15.221Z,39.53
2019-01-23T07:32:45.094Z,42.60
2019-01-23T07:35:14.322Z,40.67
2019-01-23T07:37:43.336Z,39.33
2019-01-23T07:40:12.809Z,39.50
2019-01-23T07:42:41.591Z,42.43
2019-01-23T07:45:12.005Z,38.07
2019-01-23T07:47:40.830Z,37.40
2019-01-23T07:50:12.222Z,40.47
2019-01-23T07:52:41.280Z,41.13
2019-01-23T07:55:12.201Z,41.70
2019-01-23T07:57:41.132Z,40.47
2019-01-23T08:00:13.317Z,40.80
2019-01-23T08:02:42.491Z,42.60
2019-01-23T08:05:11.810Z,40.80
2019-01-23T08:07:40.803Z,39.73
2019-01-23T08:10:12.162Z,36.33
2019-01-23T08:12:41.173Z,34.43
2019-01-23T08:15:16.151Z,43.60
2019-01-23T08:17:45.061Z,35.17
2019-01-23T08:20:16.031Z,38.07
2019-01-23T08:22:44.856Z,36.57
2019-01-23T08:25:14.366Z,37.03
2019-01-23T08:27:43.272Z,37.80
2019-01-23T08:30:13.271Z,37.50
2019-01-23T08:32:42.181Z,38.20
2019-01-23T08:35:11.345Z,39.70
2019-01-23T08:37:40.199Z,36.73
2019-01-23T08:40:10.979Z,36.73
2019-01-23T08:42:39.990Z,35.47
2019-01-23T08:45:10.317Z,35.07
2019-01-23T08:47:39.206Z,34.33
2019-01-23T08:50:19.469Z,34.67
2019-01-23T08:52:48.476Z,32.20
2019-01-23T08:55:17.452Z,34.97
2019-01-23T08:57:46.429Z,31.00
2019-01-23T09:00:15.788Z,31.83
2019-01-23T09:02:44.645Z,33.30
2019-01-23T09:05:13.907Z,34.30
2019-01-23T09:07:42.825Z,33.53
2019-01-23T09:10:17.062Z,32.00
2019-01-23T09:12:45.965Z,32.20
2019-01-23T09:15:15.328Z,27.27
2019-01-23T09:17:44.478Z,31.23
2019-01-23T09:20:14.697Z,32.17
2019-01-23T09:22:43.645Z,35.23
2019-01-23T09:25:16.340Z,34.90
2019-01-23T09:27:45.644Z,33.07
2019-01-23T09:30:20.733Z,33.43
2019-01-23T09:33:32.223Z,34.70
2019-01-23T09:36:28.466Z,39.77
2019-01-23T09:39:26.771Z,35.83
2019-01-23T09:42:18.959Z,36.40
2019-01-23T09:45:20.321Z,34.97
2019-01-23T09:48:05.348Z,30.73
2019-01-23T09:50:51.595Z,31.27
2019-01-23T09:53:28.436Z,34.33
2019-01-23T09:55:57.507Z,31.90
2019-01-23T09:58:26.651Z,34.60
2019-01-23T10:00:59.733Z,38.33
2019-01-23T10:03:26.751Z,34.10
2019-01-23T10:05:57.027Z,36.03
2019-01-23T10:08:25.898Z,35.67
2019-01-23T10:10:54.927Z,34.87
2019-01-23T10:13:23.691Z,35.57
2019-01-23T10:15:56.681Z,38.63
2019-01-23T10:18:25.679Z,40.97
2019-01-23T10:20:54.711Z,33.70
2019-01-23T10:23:23.680Z,36.47
2019-01-23T10:25:52.658Z,38.30
2019-01-23T10:28:21.540Z,40.63
2019-01-23T10:30:50.539Z,39.87
2019-01-23T10:33:19.584Z,41.13
2019-01-23T10:35:48.706Z,43.20
2019-01-23T10:38:17.677Z,37.80
2019-01-23T10:40:46.650Z,38.47
2019-01-23T10:43:15.706Z,41.23
2019-01-23T10:48:40.611Z,40.63
2019-01-23T10:51:09.585Z,38.23
2019-01-23T10:53:38.486Z,39.60
2019-01-23T10:56:07.487Z,40.80
2019-01-23T10:58:36.829Z,38.23
2019-01-23T11:03:38.669Z,37.27
2019-01-23T11:06:08.629Z,42.93
2019-01-23T11:08:37.670Z,41.50
2019-01-23T11:11:06.835Z,41.23
2019-01-23T11:13:35.882Z,38.67
2019-01-23T11:16:06.360Z,39.47
2019-01-23T11:18:36.489Z,42.73
2019-01-23T11:21:05.658Z,41.77
2019-01-23T11:23:34.719Z,39.33
2019-01-23T11:26:03.991Z,37.53
2019-01-23T11:28:32.993Z,36.57
2019-01-23T11:31:03.141Z,33.90
2019-01-23T11:33:32.002Z,35.43
2019-01-23T11:36:00.854Z,35.27
2019-01-23T11:38:29.776Z,36.10
2019-01-23T11:40:58.942Z,34.40
2019-01-23T11:43:28.098Z,33.47
2019-01-23T11:45:56.966Z,34.77
2019-01-23T11:48:25.875Z,32.60
2019-01-23T11:50:54.779Z,34.37
2019-01-23T11:53:23.648Z,32.60
2019-01-23T11:55:52.557Z,31.87
2019-01-23T11:58:21.560Z,36.33
2019-01-23T12:00:50.509Z,30.33
2019-01-23T12:03:21.044Z,35.20
2019-01-23T12:05:50.137Z,33.70
2019-01-23T12:08:19.201Z,34.10
2019-01-23T12:10:48.206Z,32.27
2019-01-23T12:13:17.189Z,35.53
2019-01-23T12:15:46.364Z,36.97
2019-01-23T12:18:15.713Z,34.50
2019-01-23T12:20:45.837Z,36.17
2019-01-23T12:23:14.914Z,34.40
2019-01-23T12:25:43.784Z,37.23
2019-01-23T12:28:12.745Z,39.60
2019-01-23T12:30:41.945Z,36.67
2019-01-23T12:33:10.863Z,36.00
2019-01-23T12:35:39.741Z,40.90
2019-01-23T12:38:08.632Z,38.10
2019-01-23T12:40:37.596Z,41.07
2019-01-23T12:43:06.695Z,39.63
2019-01-23T12:45:35.624Z,38.73
2019-01-23T12:48:04.557Z,36.37
2019-01-23T12:50:36.105Z,39.33
2019-01-23T12:53:05.247Z,36.20
2019-01-23T12:55:34.067Z,36.93
2019-01-23T12:58:02.954Z,38.33
2019-01-23T13:00:34.973Z,38.53
2019-01-23T13:03:04.082Z,35.17
2019-01-23T13:05:33.087Z,23.70
2019-01-23T13:08:01.968Z,24.23
2019-01-23T13:10:30.982Z,25.30
2019-01-23T13:13:00.021Z,27.43
2019-01-23T13:15:29.223Z,24.67
2019-01-23T13:17:58.546Z,25.90
2019-01-23T13:20:28.629Z,24.63
2019-01-23T13:22:57.890Z,24.83
2019-01-23T13:25:28.346Z,28.00
2019-01-23T13:27:59.475Z,28.33
2019-01-23T13:30:28.749Z,26.70
2019-01-23T13:32:57.717Z,28.27
2019-01-23T13:35:29.287Z,27.07
2019-01-23T13:37:58.084Z,27.10
2019-01-23T13:40:32.231Z,28.97
2019-01-23T13:43:01.102Z,27.00
2019-01-23T13:45:29.977Z,27.40
2019-01-23T13:47:58.826Z,30.33
2019-01-23T13:50:28.812Z,25.33
2019-01-23T13:52:58.100Z,28.20
2019-01-23T13:55:27.086Z,25.77
2019-01-23T13:57:56.010Z,26.40
2019-01-23T14:00:30.846Z,23.83
2019-01-23T14:03:00.201Z,27.83
2019-01-23T14:05:29.110Z,26.97
2019-01-23T14:07:58.062Z,24.53
2019-01-23T14:10:27.065Z,23.33
2019-01-23T14:12:56.122Z,24.93
2019-01-23T14:15:32.907Z,23.53
2019-01-23T14:18:01.731Z,24.23
2019-01-23T14:20:31.905Z,23.57
2019-01-23T14:23:00.883Z,26.53
2019-01-23T14:25:29.751Z,23.70
2019-01-23T14:27:58.656Z,23.47
2019-01-23T14:30:31.462Z,26.80
2019-01-23T14:33:00.612Z,25.17
2019-01-23T14:35:30.385Z,26.77
2019-01-23T14:38:00.775Z,26.97
2019-01-23T14:40:30.854Z,22.37
2019-01-23T14:42:59.927Z,23.07
2019-01-23T14:45:30.171Z,21.33
2019-01-23T14:47:58.994Z,24.07
2019-01-23T14:50:28.750Z,24.40
2019-01-23T14:52:57.698Z,29.10
2019-01-23T14:55:26.565Z,31.07
2019-01-23T14:57:55.572Z,26.77
2019-01-23T15:00:26.854Z,28.27
2019-01-23T15:02:55.812Z,28.63
2019-01-23T15:05:26.188Z,32.50
2019-01-23T15:07:55.188Z,33.30
2019-01-23T15:10:26.189Z,29.30
2019-01-23T15:12:55.345Z,31.87
2019-01-23T15:15:24.364Z,31.57
2019-01-23T15:17:53.644Z,30.73
2019-01-23T15:20:34.188Z,28.07
2019-01-23T15:23:03.460Z,30.40
2019-01-23T15:25:32.849Z,27.17
2019-01-23T15:28:02.191Z,30.27
2019-01-23T15:30:31.405Z,28.60
2019-01-23T15:33:00.436Z,25.23
2019-01-23T15:35:29.461Z,27.33
2019-01-23T15:37:58.453Z,29.70
2019-01-23T15:40:30.564Z,30.97
2019-01-23T15:42:59.525Z,26.90
2019-01-23T15:45:28.529Z,30.97
2019-01-23T15:47:57.292Z,27.30
2019-01-23T15:50:26.528Z,25.63
2019-01-23T15:52:55.531Z,28.67
2019-01-23T15:55:25.257Z,29.87
2019-01-23T15:57:54.162Z,28.23
2019-01-23T16:00:25.480Z,27.73
2019-01-23T16:02:54.570Z,28.87
2019-01-23T16:05:23.498Z,28.80
2019-01-23T16:07:52.604Z,32.10
2019-01-23T16:10:23.461Z,29.73
2019-01-23T16:12:52.563Z,30.00
2019-01-23T16:15:23.205Z,31.40
2019-01-23T16:17:52.418Z,33.07
2019-01-23T16:20:21.616Z,33.93
2019-01-23T16:22:50.764Z,31.53
2019-01-23T16:25:19.807Z,32.37
2019-01-23T16:27:49.159Z,35.93
2019-01-23T16:30:24.538Z,36.07
2019-01-23T16:32:53.543Z,33.97
2019-01-23T16:35:22.584Z,36.30
2019-01-23T16:37:51.954Z,37.33
2019-01-23T16:40:21.538Z,32.00
2019-01-23T16:42:50.550Z,35.37
2019-01-23T16:45:19.957Z,35.50
2019-01-23T16:47:49.184Z,35.17
2019-01-23T16:50:20.140Z,32.17
2019-01-23T16:52:49.168Z,29.67
2019-01-23T16:55:18.215Z,30.90
2019-01-23T16:57:48.151Z,30.93
2019-01-23T17:00:19.818Z,30.13
2019-01-23T17:02:48.943Z,31.33
2019-01-23T17:05:21.049Z,34.20
2019-01-23T17:07:50.089Z,30.20
2019-01-23T17:10:20.802Z,32.50
2019-01-23T17:12:49.996Z,33.67
2019-01-23T17:15:18.960Z,30.63
2019-01-23T17:17:48.086Z,29.40
2019-01-23T17:20:27.747Z,32.48
2019-01-23T17:22:56.769Z,31.27
2019-01-23T17:25:25.726Z,27.07
2019-01-23T17:27:54.589Z,33.67
2019-01-23T17:30:25.233Z,33.67
2019-01-23T17:32:54.325Z,33.40
2019-01-23T17:35:23.479Z,32.90
2019-01-23T17:37:52.383Z,31.97
2019-01-23T17:40:21.484Z,31.57
2019-01-23T17:42:50.438Z,38.30
2019-01-23T17:45:22.741Z,36.53
2019-01-23T17:47:51.990Z,36.13
2019-01-23T17:50:23.084Z,31.33
2019-01-23T17:52:52.326Z,33.53
2019-01-23T17:55:24.156Z,36.57
2019-01-23T17:57:53.156Z,35.03
2019-01-23T18:00:26.100Z,32.15
2019-01-23T18:02:55.327Z,30.10
2019-01-23T18:05:24.729Z,35.07
2019-01-23T18:07:53.698Z,33.47
2019-01-23T18:10:22.856Z,30.07
2019-01-23T18:12:51.938Z,37.47
2019-01-23T18:15:22.704Z,32.60
2019-01-23T18:17:51.673Z,30.70
2019-01-23T18:20:23.238Z,35.30
2019-01-23T18:22:52.060Z,34.03
2019-01-23T18:25:21.068Z,31.93
2019-01-23T18:27:49.984Z,29.67
2019-01-23T18:30:21.612Z,31.23
2019-01-23T18:32:51.051Z,30.40
2019-01-23T18:36:13.743Z,31.67
2019-01-23T18:39:14.117Z,29.03
2019-01-23T18:42:25.679Z,30.53
2019-01-23T18:45:24.658Z,31.53
2019-01-23T18:48:28.224Z,37.30
2019-01-23T18:51:13.407Z,34.17
2019-01-23T18:53:42.294Z,32.33
2019-01-23T18:56:11.363Z,31.27
2019-01-23T18:58:40.168Z,35.43
2019-01-23T19:01:09.108Z,34.67
2019-01-23T19:03:40.513Z,36.13
2019-01-23T19:06:09.335Z,36.73
2019-01-23T19:08:38.130Z,34.30
2019-01-23T19:11:07.604Z,36.93
2019-01-23T19:13:36.479Z,41.07
2019-01-23T19:16:06.268Z,38.23
2019-01-23T19:18:35.284Z,38.43
2019-01-23T19:21:04.699Z,36.13
2019-01-23T19:23:33.662Z,35.60
2019-01-23T19:26:02.884Z,40.00
2019-01-23T19:28:31.911Z,36.33
2019-01-23T19:31:02.153Z,38.57
2019-01-23T19:33:31.136Z,36.00
2019-01-23T19:36:00.019Z,36.50
2019-01-23T19:38:29.030Z,37.57
2019-01-23T19:40:59.191Z,37.43
2019-01-23T19:43:28.022Z,37.47
2019-01-23T19:45:57.007Z,35.60
2019-01-23T19:48:25.863Z,34.97
2019-01-23T19:50:54.902Z,36.80
2019-01-23T19:53:23.785Z,36.13
2019-01-23T19:55:52.611Z,36.47
2019-01-23T19:58:21.417Z,40.07
2019-01-23T20:00:50.466Z,35.23
2019-01-23T20:03:20.588Z,38.17
2019-01-23T20:05:49.983Z,38.87
2019-01-23T20:08:18.966Z,36.23
2019-01-23T20:10:48.061Z,38.13
2019-01-23T20:13:16.885Z,36.27
2019-01-23T20:15:45.782Z,37.80
2019-01-23T20:18:14.727Z,41.10
2019-01-23T20:20:43.812Z,38.40
2019-01-23T20:23:12.662Z,37.57
2019-01-23T20:25:41.602Z,38.93
2019-01-23T20:28:12.293Z,47.47
2019-01-23T20:30:43.001Z,41.13
2019-01-23T20:33:11.932Z,41.73
2019-01-23T20:35:40.822Z,55.03
2019-01-23T20:38:09.726Z,42.63
2019-01-23T20:40:38.901Z,43.60
2019-01-23T20:43:08.593Z,40.07
2019-01-23T20:45:37.973Z,40.07
2019-01-23T20:48:08.876Z,42.73
2019-01-23T20:50:38.140Z,41.67
2019-01-23T20:53:09.036Z,44.17
2019-01-23T20:55:39.880Z,46.18
2019-01-23T20:58:09.263Z,37.13
2019-01-23T21:00:38.709Z,43.03
2019-01-23T21:03:07.918Z,37.23
2019-01-23T21:05:37.251Z,40.93
2019-01-23T21:08:06.450Z,41.80
2019-01-23T21:10:36.808Z,41.00
2019-01-23T21:13:05.759Z,43.33
2019-01-23T21:15:35.383Z,40.50
2019-01-23T21:18:05.843Z,43.43
2019-01-23T21:20:39.936Z,39.67
2019-01-23T21:23:11.911Z,41.47
2019-01-23T21:25:40.887Z,37.37
2019-01-23T21:28:09.871Z,41.23
2019-01-23T21:30:39.493Z,43.80
2019-01-23T21:33:08.508Z,40.83
2019-01-23T21:35:37.493Z,40.83
2019-01-23T21:38:06.541Z,40.93
2019-01-23T21:40:35.571Z,40.67
2019-01-23T21:43:04.787Z,39.87
2019-01-23T21:45:38.047Z,41.70
2019-01-23T21:48:07.679Z,38.97
2019-01-23T21:50:36.707Z,38.20
2019-01-23T21:53:05.959Z,37.87
2019-01-23T21:55:35.066Z,42.58
2019-01-23T21:58:04.675Z,38.20
2019-01-23T22:00:48.177Z,38.90
2019-01-23T22:03:17.311Z,41.77
2019-01-23T22:05:46.347Z,38.97
2019-01-23T22:08:15.398Z,39.70
2019-01-23T22:10:44.482Z,41.13
2019-01-23T22:13:13.431Z,40.57
2019-01-23T22:15:42.592Z,38.23
2019-01-23T22:18:11.825Z,41.03
2019-01-23T22:20:42.862Z,39.13
2019-01-23T22:23:11.935Z,39.27
2019-01-23T22:25:40.969Z,39.40
2019-01-23T22:28:09.933Z,39.77
2019-01-23T22:30:39.002Z,40.67
2019-01-23T22:33:08.083Z,39.53
2019-01-23T22:35:37.064Z,42.30
2019-01-23T22:38:06.767Z,37.97
2019-01-23T22:40:35.852Z,42.10
2019-01-23T22:43:07.557Z,36.87
2019-01-23T22:45:36.450Z,38.73
2019-01-23T22:48:06.081Z,39.63
2019-01-23T22:50:36.379Z,37.77
2019-01-23T22:53:05.891Z,40.37
2019-01-23T22:55:34.851Z,38.53
2019-01-23T22:58:03.800Z,39.23
2019-01-23T23:01:15.341Z,44.47
2019-01-23T23:03:44.077Z,39.50
2019-01-23T23:06:13.045Z,43.90
2019-01-23T23:08:41.829Z,43.67
2019-01-23T23:11:11.022Z,43.57
2019-01-23T23:13:39.856Z,41.20
2019-01-23T23:16:08.820Z,42.87
2019-01-23T23:18:37.805Z,41.03
2019-01-23T23:21:07.132Z,40.87
2019-01-23T23:23:36.149Z,39.87
2019-01-23T23:26:05.354Z,41.20
2019-01-23T23:28:34.208Z,40.47
2019-01-23T23:31:03.426Z,41.97
2019-01-23T23:33:32.473Z,41.73
2019-01-23T23:36:01.624Z,38.90
2019-01-23T23:38:30.502Z,41.90
2019-01-23T23:40:59.579Z,41.90
2019-01-23T23:43:28.556Z,42.07
2019-01-23T23:45:57.432Z,42.53
2019-01-23T23:48:26.344Z,42.20
2019-01-23T23:50:55.338Z,46.43
2019-01-23T23:53:24.124Z,43.50
2019-01-23T23:55:53.030Z,43.80
2019-01-23T23:58:21.939Z,45.83
